sensor_id;sensor_type;location;lat;lon;timestamp;temperature;humidity
50570;DHT22;36525;49.398;7.614;2024-01-30T00:00:52;3.20;99.90
50570;DHT22;36525;49.398;7.614;2024-01-30T00:03:18;3.20;99.90
50570;DHT22;36525;49.398;7.614;2024-01-30T00:05:46;3.20;99.90
50570;DHT22;36525;49.398;7.614;2024-01-30T00:08:13;3.20;99.90
50570;DHT22;36525;49.398;7.614;2024-01-30T00:10:40;3.20;99.90
50570;DHT22;36525;49.398;7.614;2024-01-30T00:13:07;3.20;99.90
50570;DHT22;36525;49.398;7.614;2024-01-30T00:15:34;3.20;99.90
50570;DHT22;36525;49.398;7.614;2024-01-30T00:18:01;3.20;99.90
50570;DHT22;36525;49.398;7.614;2024-01-30T00:20:28;3.10;99.90
50570;DHT22;36525;49.398;7.614;2024-01-30T00:22:55;3.20;99.90
50570;DHT22;36525;49.398;7.614;2024-01-30T00:25:22;3.10;99.90
50570;DHT22;36525;49.398;7.614;2024-01-30T00:27:49;3.10;99.90
50570;DHT22;36525;49.398;7.614;2024-01-30T00:30:16;3.10;99.90
50570;DHT22;36525;49.398;7.614;2024-01-30T00:32:43;3.00;99.90
50570;DHT22;36525;49.398;7.614;2024-01-30T00:35:09;2.90;99.90
50570;DHT22;36525;49.398;7.614;2024-01-30T00:37:37;2.80;99.90
50570;DHT22;36525;49.398;7.614;2024-01-30T00:40:21;2.70;99.90
50570;DHT22;36525;49.398;7.614;2024-01-30T00:42:48;2.60;99.90
50570;DHT22;36525;49.398;7.614;2024-01-30T00:45:15;2.60;99.90
50570;DHT22;36525;49.398;7.614;2024-01-30T00:47:43;2.70;99.90
50570;DHT22;36525;49.398;7.614;2024-01-30T00:50:10;2.70;99.90
50570;DHT22;36525;49.398;7.614;2024-01-30T00:52:37;2.70;99.90
50570;DHT22;36525;49.398;7.614;2024-01-30T00:55:05;2.70;99.90
50570;DHT22;36525;49.398;7.614;2024-01-30T00:57:32;2.70;99.90
50570;DHT22;36525;49.398;7.614;2024-01-30T00:59:59;2.70;99.90
50570;DHT22;36525;49.398;7.614;2024-01-30T01:02:26;2.70;99.90
50570;DHT22;36525;49.398;7.614;2024-01-30T01:04:53;2.60;99.90
50570;DHT22;36525;49.398;7.614;2024-01-30T01:07:19;2.40;99.90
50570;DHT22;36525;49.398;7.614;2024-01-30T01:09:46;2.40;99.90
50570;DHT22;36525;49.398;7.614;2024-01-30T01:12:14;2.30;99.90
50570;DHT22;36525;49.398;7.614;2024-01-30T01:14:41;2.40;99.90
50570;DHT22;36525;49.398;7.614;2024-01-30T01:17:08;2.30;99.90
50570;DHT22;36525;49.398;7.614;2024-01-30T01:19:35;2.30;99.90
50570;DHT22;36525;49.398;7.614;2024-01-30T01:22:02;2.40;99.90
50570;DHT22;36525;49.398;7.614;2024-01-30T01:24:33;2.40;99.90
50570;DHT22;36525;49.398;7.614;2024-01-30T01:27:01;2.50;99.90
50570;DHT22;36525;49.398;7.614;2024-01-30T01:29:28;2.60;99.90
50570;DHT22;36525;49.398;7.614;2024-01-30T01:31:55;2.60;99.90
50570;DHT22;36525;49.398;7.614;2024-01-30T01:34:23;2.60;99.90
50570;DHT22;36525;49.398;7.614;2024-01-30T01:36:56;2.60;99.90
50570;DHT22;36525;49.398;7.614;2024-01-30T01:39:23;2.70;99.90
50570;DHT22;36525;49.398;7.614;2024-01-30T01:41:51;2.80;99.90
50570;DHT22;36525;49.398;7.614;2024-01-30T01:44:18;2.90;99.90
50570;DHT22;36525;49.398;7.614;2024-01-30T01:46:45;3.00;99.90
50570;DHT22;36525;49.398;7.614;2024-01-30T01:49:12;3.10;99.90
50570;DHT22;36525;49.398;7.614;2024-01-30T01:51:39;3.20;99.90
50570;DHT22;36525;49.398;7.614;2024-01-30T01:54:08;3.20;99.90
50570;DHT22;36525;49.398;7.614;2024-01-30T01:56:35;3.20;99.90
50570;DHT22;36525;49.398;7.614;2024-01-30T01:59:07;3.20;99.90
50570;DHT22;36525;49.398;7.614;2024-01-30T02:01:38;3.30;99.90
50570;DHT22;36525;49.398;7.614;2024-01-30T02:04:06;3.40;99.90
50570;DHT22;36525;49.398;7.614;2024-01-30T02:06:34;3.50;99.90
50570;DHT22;36525;49.398;7.614;2024-01-30T02:09:01;3.60;99.90
50570;DHT22;36525;49.398;7.614;2024-01-30T02:11:28;3.70;99.90
50570;DHT22;36525;49.398;7.614;2024-01-30T02:13:55;4.00;99.90
50570;DHT22;36525;49.398;7.614;2024-01-30T02:16:22;4.40;99.90
50570;DHT22;36525;49.398;7.614;2024-01-30T02:18:49;4.50;99.90
50570;DHT22;36525;49.398;7.614;2024-01-30T02:21:17;5.00;99.90
50570;DHT22;36525;49.398;7.614;2024-01-30T02:23:46;5.40;99.90
50570;DHT22;36525;49.398;7.614;2024-01-30T02:26:13;5.70;99.90
50570;DHT22;36525;49.398;7.614;2024-01-30T02:28:40;5.90;99.90
50570;DHT22;36525;49.398;7.614;2024-01-30T02:31:07;6.00;99.90
50570;DHT22;36525;49.398;7.614;2024-01-30T02:33:34;6.10;99.90
50570;DHT22;36525;49.398;7.614;2024-01-30T02:36:00;6.10;99.90
50570;DHT22;36525;49.398;7.614;2024-01-30T02:38:27;6.30;99.90
50570;DHT22;36525;49.398;7.614;2024-01-30T02:40:55;6.30;99.90
50570;DHT22;36525;49.398;7.614;2024-01-30T02:43:23;6.40;99.90
50570;DHT22;36525;49.398;7.614;2024-01-30T02:45:50;6.30;99.90
50570;DHT22;36525;49.398;7.614;2024-01-30T02:48:17;6.30;99.90
50570;DHT22;36525;49.398;7.614;2024-01-30T02:50:44;6.50;99.90
50570;DHT22;36525;49.398;7.614;2024-01-30T02:53:11;6.50;99.90
50570;DHT22;36525;49.398;7.614;2024-01-30T02:55:38;6.50;99.90
50570;DHT22;36525;49.398;7.614;2024-01-30T02:58:14;6.40;99.90
50570;DHT22;36525;49.398;7.614;2024-01-30T03:00:41;6.30;99.90
50570;DHT22;36525;49.398;7.614;2024-01-30T03:03:08;6.00;99.90
50570;DHT22;36525;49.398;7.614;2024-01-30T03:05:35;5.80;99.90
50570;DHT22;36525;49.398;7.614;2024-01-30T03:08:03;5.50;99.90
50570;DHT22;36525;49.398;7.614;2024-01-30T03:10:31;5.20;99.90
50570;DHT22;36525;49.398;7.614;2024-01-30T03:12:58;5.00;99.90
50570;DHT22;36525;49.398;7.614;2024-01-30T03:15:25;4.80;99.90
50570;DHT22;36525;49.398;7.614;2024-01-30T03:17:53;4.60;99.90
50570;DHT22;36525;49.398;7.614;2024-01-30T03:20:20;4.50;99.90
50570;DHT22;36525;49.398;7.614;2024-01-30T03:22:47;4.40;99.90
50570;DHT22;36525;49.398;7.614;2024-01-30T03:25:14;4.30;99.90
50570;DHT22;36525;49.398;7.614;2024-01-30T03:27:41;4.30;99.90
50570;DHT22;36525;49.398;7.614;2024-01-30T03:30:08;4.20;99.90
50570;DHT22;36525;49.398;7.614;2024-01-30T03:32:35;4.30;99.90
50570;DHT22;36525;49.398;7.614;2024-01-30T03:35:01;4.40;99.90
50570;DHT22;36525;49.398;7.614;2024-01-30T03:37:29;4.50;99.90
50570;DHT22;36525;49.398;7.614;2024-01-30T03:39:55;4.60;99.90
50570;DHT22;36525;49.398;7.614;2024-01-30T03:42:24;4.90;99.90
50570;DHT22;36525;49.398;7.614;2024-01-30T03:44:50;5.10;99.90
50570;DHT22;36525;49.398;7.614;2024-01-30T03:47:21;5.30;99.90
50570;DHT22;36525;49.398;7.614;2024-01-30T03:49:48;5.40;99.90
50570;DHT22;36525;49.398;7.614;2024-01-30T03:52:15;5.60;99.90
50570;DHT22;36525;49.398;7.614;2024-01-30T03:54:42;5.80;99.90
50570;DHT22;36525;49.398;7.614;2024-01-30T03:57:09;5.90;99.90
50570;DHT22;36525;49.398;7.614;2024-01-30T03:59:36;6.10;99.90
50570;DHT22;36525;49.398;7.614;2024-01-30T04:02:03;6.20;99.90
50570;DHT22;36525;49.398;7.614;2024-01-30T04:04:31;6.20;99.90
50570;DHT22;36525;49.398;7.614;2024-01-30T04:06:58;6.20;99.90
50570;DHT22;36525;49.398;7.614;2024-01-30T04:09:25;6.20;99.90
50570;DHT22;36525;49.398;7.614;2024-01-30T04:11:53;6.20;99.90
50570;DHT22;36525;49.398;7.614;2024-01-30T04:14:20;6.20;99.90
50570;DHT22;36525;49.398;7.614;2024-01-30T04:16:46;6.20;99.90
50570;DHT22;36525;49.398;7.614;2024-01-30T04:19:13;6.20;99.90
50570;DHT22;36525;49.398;7.614;2024-01-30T04:21:41;6.20;99.90
50570;DHT22;36525;49.398;7.614;2024-01-30T04:24:08;6.20;99.90
50570;DHT22;36525;49.398;7.614;2024-01-30T04:26:35;6.30;99.90
50570;DHT22;36525;49.398;7.614;2024-01-30T04:29:03;6.30;99.90
50570;DHT22;36525;49.398;7.614;2024-01-30T04:31:30;6.30;99.90
50570;DHT22;36525;49.398;7.614;2024-01-30T04:33:57;6.30;99.90
50570;DHT22;36525;49.398;7.614;2024-01-30T04:36:24;6.30;99.90
50570;DHT22;36525;49.398;7.614;2024-01-30T04:38:51;6.20;99.90
50570;DHT22;36525;49.398;7.614;2024-01-30T04:41:18;6.30;99.90
50570;DHT22;36525;49.398;7.614;2024-01-30T04:43:45;6.20;99.90
50570;DHT22;36525;49.398;7.614;2024-01-30T04:46:12;6.20;99.90
50570;DHT22;36525;49.398;7.614;2024-01-30T04:48:39;6.30;99.90
50570;DHT22;36525;49.398;7.614;2024-01-30T04:51:06;6.30;99.90
50570;DHT22;36525;49.398;7.614;2024-01-30T04:53:33;6.30;99.90
50570;DHT22;36525;49.398;7.614;2024-01-30T04:56:00;6.30;99.90
50570;DHT22;36525;49.398;7.614;2024-01-30T04:58:27;6.30;99.90
50570;DHT22;36525;49.398;7.614;2024-01-30T05:00:55;6.30;99.90
50570;DHT22;36525;49.398;7.614;2024-01-30T05:03:24;6.30;99.90
50570;DHT22;36525;49.398;7.614;2024-01-30T05:05:51;6.30;99.90
50570;DHT22;36525;49.398;7.614;2024-01-30T05:08:18;6.30;99.90
50570;DHT22;36525;49.398;7.614;2024-01-30T05:10:47;6.40;99.90
50570;DHT22;36525;49.398;7.614;2024-01-30T05:13:14;6.30;99.90
50570;DHT22;36525;49.398;7.614;2024-01-30T05:15:41;6.30;99.90
50570;DHT22;36525;49.398;7.614;2024-01-30T05:18:08;6.40;99.90
50570;DHT22;36525;49.398;7.614;2024-01-30T05:20:35;6.40;99.90
50570;DHT22;36525;49.398;7.614;2024-01-30T05:23:02;6.40;99.90
50570;DHT22;36525;49.398;7.614;2024-01-30T05:25:29;6.40;99.90
50570;DHT22;36525;49.398;7.614;2024-01-30T05:27:56;6.40;99.90
50570;DHT22;36525;49.398;7.614;2024-01-30T05:30:23;6.40;99.90
50570;DHT22;36525;49.398;7.614;2024-01-30T05:32:50;6.40;99.90
50570;DHT22;36525;49.398;7.614;2024-01-30T05:35:17;6.40;99.90
50570;DHT22;36525;49.398;7.614;2024-01-30T05:37:43;6.30;99.90
50570;DHT22;36525;49.398;7.614;2024-01-30T05:40:10;6.40;99.90
50570;DHT22;36525;49.398;7.614;2024-01-30T05:42:37;6.30;99.90
50570;DHT22;36525;49.398;7.614;2024-01-30T05:45:05;6.30;99.90
50570;DHT22;36525;49.398;7.614;2024-01-30T05:47:32;6.30;99.90
50570;DHT22;36525;49.398;7.614;2024-01-30T05:49:59;6.30;99.90
50570;DHT22;36525;49.398;7.614;2024-01-30T05:52:26;6.30;99.90
50570;DHT22;36525;49.398;7.614;2024-01-30T05:54:53;6.30;99.90
50570;DHT22;36525;49.398;7.614;2024-01-30T05:57:19;6.30;99.90
50570;DHT22;36525;49.398;7.614;2024-01-30T05:59:46;6.30;99.90
50570;DHT22;36525;49.398;7.614;2024-01-30T06:02:14;6.20;99.90
50570;DHT22;36525;49.398;7.614;2024-01-30T06:04:41;6.20;99.90
50570;DHT22;36525;49.398;7.614;2024-01-30T06:07:09;6.20;99.90
50570;DHT22;36525;49.398;7.614;2024-01-30T06:09:36;6.20;99.90
50570;DHT22;36525;49.398;7.614;2024-01-30T06:12:03;6.10;99.90
50570;DHT22;36525;49.398;7.614;2024-01-30T06:14:31;6.10;99.90
50570;DHT22;36525;49.398;7.614;2024-01-30T06:16:59;6.10;99.90
50570;DHT22;36525;49.398;7.614;2024-01-30T06:19:26;6.10;99.90
50570;DHT22;36525;49.398;7.614;2024-01-30T06:21:54;5.90;99.90
50570;DHT22;36525;49.398;7.614;2024-01-30T06:24:21;5.90;99.90
50570;DHT22;36525;49.398;7.614;2024-01-30T06:26:48;5.80;99.90
50570;DHT22;36525;49.398;7.614;2024-01-30T06:29:15;5.80;99.90
50570;DHT22;36525;49.398;7.614;2024-01-30T06:31:46;5.70;99.90
50570;DHT22;36525;49.398;7.614;2024-01-30T06:34:13;5.70;99.90
50570;DHT22;36525;49.398;7.614;2024-01-30T06:36:40;5.70;99.90
50570;DHT22;36525;49.398;7.614;2024-01-30T06:39:07;5.70;99.90
50570;DHT22;36525;49.398;7.614;2024-01-30T06:41:34;5.60;99.90
50570;DHT22;36525;49.398;7.614;2024-01-30T06:44:04;5.60;99.90
50570;DHT22;36525;49.398;7.614;2024-01-30T06:46:33;5.70;99.90
50570;DHT22;36525;49.398;7.614;2024-01-30T06:49:00;5.80;99.90
50570;DHT22;36525;49.398;7.614;2024-01-30T06:51:26;5.80;99.90
50570;DHT22;36525;49.398;7.614;2024-01-30T06:53:53;5.80;99.90
50570;DHT22;36525;49.398;7.614;2024-01-30T06:56:20;5.80;99.90
50570;DHT22;36525;49.398;7.614;2024-01-30T06:58:47;5.90;99.90
50570;DHT22;36525;49.398;7.614;2024-01-30T07:01:15;5.90;99.90
50570;DHT22;36525;49.398;7.614;2024-01-30T07:03:42;5.90;99.90
50570;DHT22;36525;49.398;7.614;2024-01-30T07:06:10;5.90;99.90
50570;DHT22;36525;49.398;7.614;2024-01-30T07:08:40;5.80;99.90
50570;DHT22;36525;49.398;7.614;2024-01-30T07:11:06;5.80;99.90
50570;DHT22;36525;49.398;7.614;2024-01-30T07:13:34;5.80;99.90
50570;DHT22;36525;49.398;7.614;2024-01-30T07:16:01;5.90;99.90
50570;DHT22;36525;49.398;7.614;2024-01-30T07:18:28;5.90;99.90
50570;DHT22;36525;49.398;7.614;2024-01-30T07:20:55;6.00;99.90
50570;DHT22;36525;49.398;7.614;2024-01-30T07:23:21;6.00;99.90
50570;DHT22;36525;49.398;7.614;2024-01-30T07:25:49;6.10;99.90
50570;DHT22;36525;49.398;7.614;2024-01-30T07:28:17;6.10;99.90
50570;DHT22;36525;49.398;7.614;2024-01-30T07:30:44;6.30;99.90
50570;DHT22;36525;49.398;7.614;2024-01-30T07:33:12;6.30;99.90
50570;DHT22;36525;49.398;7.614;2024-01-30T07:35:39;6.30;99.90
50570;DHT22;36525;49.398;7.614;2024-01-30T07:38:07;6.20;99.90
50570;DHT22;36525;49.398;7.614;2024-01-30T07:40:33;6.20;99.90
50570;DHT22;36525;49.398;7.614;2024-01-30T07:43:01;6.30;99.90
50570;DHT22;36525;49.398;7.614;2024-01-30T07:45:30;6.40;99.90
50570;DHT22;36525;49.398;7.614;2024-01-30T07:48:00;6.40;99.90
50570;DHT22;36525;49.398;7.614;2024-01-30T07:50:27;6.40;99.90
50570;DHT22;36525;49.398;7.614;2024-01-30T07:52:55;6.50;99.90
50570;DHT22;36525;49.398;7.614;2024-01-30T07:55:23;6.60;99.90
50570;DHT22;36525;49.398;7.614;2024-01-30T07:57:58;6.60;99.90
50570;DHT22;36525;49.398;7.614;2024-01-30T08:00:26;6.60;99.90
50570;DHT22;36525;49.398;7.614;2024-01-30T08:02:53;6.60;99.90
50570;DHT22;36525;49.398;7.614;2024-01-30T08:05:22;6.70;99.90
50570;DHT22;36525;49.398;7.614;2024-01-30T08:07:49;6.70;99.90
50570;DHT22;36525;49.398;7.614;2024-01-30T08:10:17;6.70;99.90
50570;DHT22;36525;49.398;7.614;2024-01-30T08:12:45;6.80;99.90
50570;DHT22;36525;49.398;7.614;2024-01-30T08:15:12;6.80;99.90
50570;DHT22;36525;49.398;7.614;2024-01-30T08:17:39;6.90;99.90
50570;DHT22;36525;49.398;7.614;2024-01-30T08:20:06;6.90;99.90
50570;DHT22;36525;49.398;7.614;2024-01-30T08:22:35;7.00;99.90
50570;DHT22;36525;49.398;7.614;2024-01-30T08:25:04;7.00;99.90
50570;DHT22;36525;49.398;7.614;2024-01-30T08:27:32;7.00;99.90
50570;DHT22;36525;49.398;7.614;2024-01-30T08:29:59;7.00;99.90
50570;DHT22;36525;49.398;7.614;2024-01-30T08:32:26;7.00;99.90
50570;DHT22;36525;49.398;7.614;2024-01-30T08:34:53;7.10;99.90
50570;DHT22;36525;49.398;7.614;2024-01-30T08:37:20;7.10;99.90
50570;DHT22;36525;49.398;7.614;2024-01-30T08:39:47;7.10;99.90
50570;DHT22;36525;49.398;7.614;2024-01-30T08:42:14;7.10;99.90
50570;DHT22;36525;49.398;7.614;2024-01-30T08:44:40;7.10;99.90
50570;DHT22;36525;49.398;7.614;2024-01-30T08:47:07;7.20;99.90
50570;DHT22;36525;49.398;7.614;2024-01-30T08:49:34;7.20;99.90
50570;DHT22;36525;49.398;7.614;2024-01-30T08:52:01;7.20;99.90
50570;DHT22;36525;49.398;7.614;2024-01-30T08:54:28;7.20;99.90
50570;DHT22;36525;49.398;7.614;2024-01-30T08:56:55;7.20;99.90
50570;DHT22;36525;49.398;7.614;2024-01-30T08:59:23;7.30;99.90
50570;DHT22;36525;49.398;7.614;2024-01-30T09:01:49;7.40;99.90
50570;DHT22;36525;49.398;7.614;2024-01-30T09:04:36;7.50;99.90
50570;DHT22;36525;49.398;7.614;2024-01-30T09:07:03;7.50;99.90
50570;DHT22;36525;49.398;7.614;2024-01-30T09:09:32;7.60;99.90
50570;DHT22;36525;49.398;7.614;2024-01-30T09:11:59;7.60;99.90
50570;DHT22;36525;49.398;7.614;2024-01-30T09:14:31;7.70;99.90
50570;DHT22;36525;49.398;7.614;2024-01-30T09:16:57;7.70;99.90
50570;DHT22;36525;49.398;7.614;2024-01-30T09:19:24;7.80;99.90
50570;DHT22;36525;49.398;7.614;2024-01-30T09:21:51;7.80;99.90
50570;DHT22;36525;49.398;7.614;2024-01-30T09:24:18;7.80;99.90
50570;DHT22;36525;49.398;7.614;2024-01-30T09:26:45;8.00;99.90
50570;DHT22;36525;49.398;7.614;2024-01-30T09:29:12;8.00;99.90
50570;DHT22;36525;49.398;7.614;2024-01-30T09:31:39;8.00;99.90
50570;DHT22;36525;49.398;7.614;2024-01-30T09:34:05;8.00;99.90
50570;DHT22;36525;49.398;7.614;2024-01-30T09:36:32;8.10;99.90
50570;DHT22;36525;49.398;7.614;2024-01-30T09:38:59;8.10;99.90
50570;DHT22;36525;49.398;7.614;2024-01-30T09:41:27;8.20;99.90
50570;DHT22;36525;49.398;7.614;2024-01-30T09:43:54;8.00;99.90
50570;DHT22;36525;49.398;7.614;2024-01-30T09:46:23;8.20;99.90
50570;DHT22;36525;49.398;7.614;2024-01-30T09:48:55;8.20;99.90
50570;DHT22;36525;49.398;7.614;2024-01-30T09:51:22;8.20;99.90
50570;DHT22;36525;49.398;7.614;2024-01-30T09:53:49;8.20;99.90
50570;DHT22;36525;49.398;7.614;2024-01-30T09:56:15;8.20;99.90
50570;DHT22;36525;49.398;7.614;2024-01-30T09:58:43;8.30;99.90
50570;DHT22;36525;49.398;7.614;2024-01-30T10:01:10;8.40;99.90
50570;DHT22;36525;49.398;7.614;2024-01-30T10:03:37;8.30;99.90
50570;DHT22;36525;49.398;7.614;2024-01-30T10:06:04;8.40;99.90
50570;DHT22;36525;49.398;7.614;2024-01-30T10:08:32;8.40;99.90
50570;DHT22;36525;49.398;7.614;2024-01-30T10:11:00;8.40;99.90
50570;DHT22;36525;49.398;7.614;2024-01-30T10:13:28;8.40;99.90
50570;DHT22;36525;49.398;7.614;2024-01-30T10:15:55;8.50;99.90
50570;DHT22;36525;49.398;7.614;2024-01-30T10:18:23;8.50;99.90
50570;DHT22;36525;49.398;7.614;2024-01-30T10:20:51;8.50;99.90
50570;DHT22;36525;49.398;7.614;2024-01-30T10:23:18;8.40;99.90
50570;DHT22;36525;49.398;7.614;2024-01-30T10:25:46;8.40;99.90
50570;DHT22;36525;49.398;7.614;2024-01-30T10:28:13;8.50;99.90
50570;DHT22;36525;49.398;7.614;2024-01-30T10:30:40;8.40;99.90
50570;DHT22;36525;49.398;7.614;2024-01-30T10:33:07;8.40;99.90
50570;DHT22;36525;49.398;7.614;2024-01-30T10:35:34;8.50;99.90
50570;DHT22;36525;49.398;7.614;2024-01-30T10:38:01;8.60;99.90
50570;DHT22;36525;49.398;7.614;2024-01-30T10:40:28;8.60;99.90
50570;DHT22;36525;49.398;7.614;2024-01-30T10:42:56;8.60;99.90
50570;DHT22;36525;49.398;7.614;2024-01-30T10:45:23;8.70;99.90
50570;DHT22;36525;49.398;7.614;2024-01-30T10:47:53;8.60;99.90
50570;DHT22;36525;49.398;7.614;2024-01-30T10:50:24;8.60;99.90
50570;DHT22;36525;49.398;7.614;2024-01-30T10:52:52;8.70;99.90
50570;DHT22;36525;49.398;7.614;2024-01-30T10:55:20;8.70;99.90
50570;DHT22;36525;49.398;7.614;2024-01-30T10:57:48;8.70;99.90
50570;DHT22;36525;49.398;7.614;2024-01-30T11:00:16;8.70;99.90
50570;DHT22;36525;49.398;7.614;2024-01-30T11:02:43;8.70;99.90
50570;DHT22;36525;49.398;7.614;2024-01-30T11:05:11;8.80;99.90
50570;DHT22;36525;49.398;7.614;2024-01-30T11:07:39;8.80;99.90
50570;DHT22;36525;49.398;7.614;2024-01-30T11:10:09;8.80;99.90
50570;DHT22;36525;49.398;7.614;2024-01-30T11:12:42;8.80;99.90
50570;DHT22;36525;49.398;7.614;2024-01-30T11:15:13;8.90;99.90
50570;DHT22;36525;49.398;7.614;2024-01-30T11:20:27;8.80;99.90
50570;DHT22;36525;49.398;7.614;2024-01-30T11:22:59;9.00;99.90
50570;DHT22;36525;49.398;7.614;2024-01-30T11:25:28;8.90;99.90
50570;DHT22;36525;49.398;7.614;2024-01-30T11:27:58;9.00;99.90
50570;DHT22;36525;49.398;7.614;2024-01-30T11:32:59;9.00;99.90
50570;DHT22;36525;49.398;7.614;2024-01-30T11:35:32;9.10;99.90
50570;DHT22;36525;49.398;7.614;2024-01-30T11:38:00;9.10;99.90
50570;DHT22;36525;49.398;7.614;2024-01-30T11:40:28;9.20;99.90
50570;DHT22;36525;49.398;7.614;2024-01-30T11:42:58;9.20;99.90
50570;DHT22;36525;49.398;7.614;2024-01-30T11:45:28;9.30;99.90
50570;DHT22;36525;49.398;7.614;2024-01-30T11:47:55;9.30;99.90
50570;DHT22;36525;49.398;7.614;2024-01-30T11:50:23;9.30;99.90
50570;DHT22;36525;49.398;7.614;2024-01-30T11:52:50;9.40;99.90
50570;DHT22;36525;49.398;7.614;2024-01-30T11:55:16;9.40;99.90
50570;DHT22;36525;49.398;7.614;2024-01-30T11:57:44;9.40;99.90
50570;DHT22;36525;49.398;7.614;2024-01-30T12:00:18;9.30;99.90
50570;DHT22;36525;49.398;7.614;2024-01-30T12:02:52;9.40;99.90
50570;DHT22;36525;49.398;7.614;2024-01-30T12:05:23;9.50;99.90
50570;DHT22;36525;49.398;7.614;2024-01-30T12:07:50;9.40;99.90
50570;DHT22;36525;49.398;7.614;2024-01-30T12:10:18;9.60;99.90
50570;DHT22;36525;49.398;7.614;2024-01-30T12:12:46;9.60;99.90
50570;DHT22;36525;49.398;7.614;2024-01-30T12:15:14;9.70;99.90
50570;DHT22;36525;49.398;7.614;2024-01-30T12:17:42;9.60;99.90
50570;DHT22;36525;49.398;7.614;2024-01-30T12:20:13;9.70;99.90
50570;DHT22;36525;49.398;7.614;2024-01-30T12:22:42;9.70;99.90
50570;DHT22;36525;49.398;7.614;2024-01-30T12:25:11;9.60;99.90
50570;DHT22;36525;49.398;7.614;2024-01-30T12:27:40;9.70;99.90
50570;DHT22;36525;49.398;7.614;2024-01-30T12:30:10;9.90;99.90
50570;DHT22;36525;49.398;7.614;2024-01-30T12:32:41;9.90;99.90
50570;DHT22;36525;49.398;7.614;2024-01-30T12:35:10;9.90;99.90
50570;DHT22;36525;49.398;7.614;2024-01-30T12:37:38;10.00;99.90
50570;DHT22;36525;49.398;7.614;2024-01-30T12:40:07;10.00;99.90
50570;DHT22;36525;49.398;7.614;2024-01-30T12:42:35;10.00;99.90
50570;DHT22;36525;49.398;7.614;2024-01-30T12:45:02;10.10;99.90
50570;DHT22;36525;49.398;7.614;2024-01-30T12:47:30;10.20;99.90
50570;DHT22;36525;49.398;7.614;2024-01-30T12:49:58;10.40;99.90
50570;DHT22;36525;49.398;7.614;2024-01-30T12:52:25;10.30;99.90
50570;DHT22;36525;49.398;7.614;2024-01-30T12:54:52;10.40;99.90
50570;DHT22;36525;49.398;7.614;2024-01-30T12:57:19;10.40;99.90
50570;DHT22;36525;49.398;7.614;2024-01-30T12:59:46;10.40;99.90
50570;DHT22;36525;49.398;7.614;2024-01-30T13:02:13;10.50;99.90
50570;DHT22;36525;49.398;7.614;2024-01-30T13:04:40;10.40;99.90
50570;DHT22;36525;49.398;7.614;2024-01-30T13:07:07;10.40;99.90
50570;DHT22;36525;49.398;7.614;2024-01-30T13:09:34;10.30;99.90
50570;DHT22;36525;49.398;7.614;2024-01-30T13:12:01;10.40;99.90
50570;DHT22;36525;49.398;7.614;2024-01-30T13:14:28;10.50;99.90
50570;DHT22;36525;49.398;7.614;2024-01-30T13:16:55;10.50;99.90
50570;DHT22;36525;49.398;7.614;2024-01-30T13:19:22;10.70;99.90
50570;DHT22;36525;49.398;7.614;2024-01-30T13:21:49;10.60;99.90
50570;DHT22;36525;49.398;7.614;2024-01-30T13:24:16;10.60;99.90
50570;DHT22;36525;49.398;7.614;2024-01-30T13:26:43;10.70;99.90
50570;DHT22;36525;49.398;7.614;2024-01-30T13:29:11;10.50;99.90
50570;DHT22;36525;49.398;7.614;2024-01-30T13:31:38;10.60;99.90
50570;DHT22;36525;49.398;7.614;2024-01-30T13:34:06;10.60;99.90
50570;DHT22;36525;49.398;7.614;2024-01-30T13:36:34;10.40;99.90
50570;DHT22;36525;49.398;7.614;2024-01-30T13:39:01;10.50;99.90
50570;DHT22;36525;49.398;7.614;2024-01-30T13:41:29;10.40;99.90
50570;DHT22;36525;49.398;7.614;2024-01-30T13:43:56;10.40;99.90
50570;DHT22;36525;49.398;7.614;2024-01-30T13:46:23;10.40;99.90
50570;DHT22;36525;49.398;7.614;2024-01-30T13:48:50;10.30;99.90
50570;DHT22;36525;49.398;7.614;2024-01-30T13:51:18;10.40;99.90
50570;DHT22;36525;49.398;7.614;2024-01-30T13:53:45;10.40;99.90
50570;DHT22;36525;49.398;7.614;2024-01-30T13:56:12;10.40;99.90
50570;DHT22;36525;49.398;7.614;2024-01-30T13:58:39;10.20;99.90
50570;DHT22;36525;49.398;7.614;2024-01-30T14:01:07;10.30;99.90
50570;DHT22;36525;49.398;7.614;2024-01-30T14:03:34;10.20;99.90
50570;DHT22;36525;49.398;7.614;2024-01-30T14:06:01;10.30;99.90
50570;DHT22;36525;49.398;7.614;2024-01-30T14:08:28;10.30;99.90
50570;DHT22;36525;49.398;7.614;2024-01-30T14:10:55;10.30;99.90
50570;DHT22;36525;49.398;7.614;2024-01-30T14:13:24;10.30;99.90
50570;DHT22;36525;49.398;7.614;2024-01-30T14:15:52;10.20;99.90
50570;DHT22;36525;49.398;7.614;2024-01-30T14:18:19;10.20;99.90
50570;DHT22;36525;49.398;7.614;2024-01-30T14:20:47;10.20;99.90
50570;DHT22;36525;49.398;7.614;2024-01-30T14:23:13;10.10;99.90
50570;DHT22;36525;49.398;7.614;2024-01-30T14:25:41;10.20;99.90
50570;DHT22;36525;49.398;7.614;2024-01-30T14:28:08;10.20;99.90
50570;DHT22;36525;49.398;7.614;2024-01-30T14:30:35;10.20;99.90
50570;DHT22;36525;49.398;7.614;2024-01-30T14:33:02;10.10;99.90
50570;DHT22;36525;49.398;7.614;2024-01-30T14:35:29;10.00;99.90
50570;DHT22;36525;49.398;7.614;2024-01-30T14:37:56;10.10;99.90
50570;DHT22;36525;49.398;7.614;2024-01-30T14:40:23;10.00;99.90
50570;DHT22;36525;49.398;7.614;2024-01-30T14:42:51;10.00;99.90
50570;DHT22;36525;49.398;7.614;2024-01-30T14:45:18;10.00;99.90
50570;DHT22;36525;49.398;7.614;2024-01-30T14:47:45;10.00;99.90
50570;DHT22;36525;49.398;7.614;2024-01-30T14:50:12;10.00;99.90
50570;DHT22;36525;49.398;7.614;2024-01-30T14:52:39;10.00;99.90
50570;DHT22;36525;49.398;7.614;2024-01-30T14:55:07;10.00;99.90
50570;DHT22;36525;49.398;7.614;2024-01-30T14:57:34;10.00;99.90
50570;DHT22;36525;49.398;7.614;2024-01-30T15:00:02;9.90;99.90
50570;DHT22;36525;49.398;7.614;2024-01-30T15:02:29;9.90;99.90
50570;DHT22;36525;49.398;7.614;2024-01-30T15:04:56;9.80;99.90
50570;DHT22;36525;49.398;7.614;2024-01-30T15:07:23;9.80;99.90
50570;DHT22;36525;49.398;7.614;2024-01-30T15:10:02;9.80;99.90
50570;DHT22;36525;49.398;7.614;2024-01-30T15:12:30;9.70;99.90
50570;DHT22;36525;49.398;7.614;2024-01-30T15:14:57;9.70;99.90
50570;DHT22;36525;49.398;7.614;2024-01-30T15:17:24;9.70;99.90
50570;DHT22;36525;49.398;7.614;2024-01-30T15:19:51;9.70;99.90
50570;DHT22;36525;49.398;7.614;2024-01-30T15:22:18;9.70;99.90
50570;DHT22;36525;49.398;7.614;2024-01-30T15:24:45;9.60;99.90
50570;DHT22;36525;49.398;7.614;2024-01-30T15:27:12;9.60;99.90
50570;DHT22;36525;49.398;7.614;2024-01-30T15:29:39;9.60;99.90
50570;DHT22;36525;49.398;7.614;2024-01-30T15:32:06;9.70;99.90
50570;DHT22;36525;49.398;7.614;2024-01-30T15:34:33;9.60;99.90
50570;DHT22;36525;49.398;7.614;2024-01-30T15:37:00;9.60;99.90
50570;DHT22;36525;49.398;7.614;2024-01-30T15:39:27;9.60;99.90
50570;DHT22;36525;49.398;7.614;2024-01-30T15:41:55;9.70;99.90
50570;DHT22;36525;49.398;7.614;2024-01-30T15:44:22;9.60;99.90
50570;DHT22;36525;49.398;7.614;2024-01-30T15:46:49;9.60;99.90
50570;DHT22;36525;49.398;7.614;2024-01-30T15:49:16;9.60;99.90
50570;DHT22;36525;49.398;7.614;2024-01-30T15:51:43;9.60;99.90